^^

Live Weather Display



Station Historical Data
 
Daily Summary for November 22, 2017 Units:  English    Metric   Both
« Previous Day
Next Day »
Daily Weekly Monthly Yearly Custom
  Current: High: Low: Average:
Temperature: 50.7 °F 51.6 °F 49.6 °F 50.6 °F
Dew Point: 45.4 °F 45.4 °F 42.9 °F 44.2 °F
Humidity: 82 % 82 % 77 % 78 %
Wind Speed: 0.0 mph 1.3 mph 0.0 mph 0 mph
Wind Gust: 2.0 mph 2.9 mph - -
Wind:Calm - - West
Pressure: 29.90 in 29.98 in 29.90 in -
Precipitation: 0.00 in      
Historical Graphs
 
 
Tabular Data for November 22, 2017
Time Temperature Dew Point Pressure Wind Wind Speed Wind Gust Humidity Rainfall Rate (Hourly)
00:03 49.8 °F 42.9 °F 29.98 in Calm     77 % 0.00 in
00:08 49.8 °F 42.9 °F 29.98 in Calm     77 % 0.00 in
00:13 50.2 °F 43.6 °F 29.98 in Calm     78 % 0.00 in
00:18 50.5 °F 43.9 °F 29.98 in Calm     78 % 0.00 in
00:23 50.7 °F 43.8 °F 29.97 in Calm     77 % 0.00 in
00:28 50.9 °F 43.9 °F 29.97 in Calm   2.9 mph 77 % 0.00 in
00:33 51.1 °F 44.1 °F 29.97 in Calm   2.9 mph 77 % 0.00 in
00:38 51.3 °F 44.3 °F 29.97 in Calm   2.5 mph 77 % 0.00 in
00:43 51.4 °F 44.5 °F 29.97 in Calm   2.5 mph 77 % 0.00 in
00:48 51.4 °F 44.5 °F 29.97 in Calm   2.5 mph 77 % 0.00 in
00:53 51.4 °F 44.5 °F 29.96 in Calm   2.0 mph 77 % 0.00 in
01:03 51.6 °F 44.7 °F 29.95 in Calm   0.9 mph 77 % 0.00 in
01:08 51.6 °F 44.7 °F 29.95 in Calm   1.6 mph 77 % 0.00 in
01:18 51.4 °F 44.5 °F 29.95 in Calm     77 % 0.00 in
01:23 51.4 °F 44.5 °F 29.95 in Calm     77 % 0.00 in
01:33 51.3 °F 44.3 °F 29.94 in Calm     77 % 0.00 in
01:38 51.1 °F 44.1 °F 29.94 in Calm     77 % 0.00 in
01:43 50.7 °F 43.8 °F 29.94 in Calm     77 % 0.00 in
01:48 50.4 °F 43.4 °F 29.94 in Calm     77 % 0.00 in
01:53 49.8 °F 43.2 °F 29.93 in Calm   2.9 mph 78 % 0.00 in
01:58 49.6 °F 43.4 °F 29.93 in Calm   2.9 mph 79 % 0.00 in
02:03 49.6 °F 43.4 °F 29.92 in Calm     79 % 0.00 in
02:13 49.6 °F 43.7 °F 29.93 in Calm   2.9 mph 80 % 0.00 in
02:18 49.6 °F 43.7 °F 29.93 in Calm   2.9 mph 80 % 0.00 in
02:23 49.8 °F 43.9 °F 29.93 in Calm     80 % 0.00 in
02:33 50.2 °F 44.2 °F 29.93 in Calm   2.5 mph 80 % 0.00 in
02:48 49.8 °F 43.9 °F 29.92 in Calm   2.2 mph 80 % 0.00 in
03:03 50.2 °F 44.2 °F 29.92 in Calm     80 % 0.00 in
03:04 50.4 °F 44.4 °F 29.91 in Calm     80 % 0.00 in
03:09 50.5 °F 44.6 °F 29.91 in Calm     80 % 0.00 in
03:14 50.5 °F 44.6 °F 29.91 in Calm   2.2 mph 80 % 0.00 in
03:19 50.7 °F 44.8 °F 29.91 in Calm   2.2 mph 80 % 0.00 in
03:24 50.7 °F 44.8 °F 29.91 in Calm     80 % 0.00 in
03:29 50.9 °F 45.0 °F 29.90 in Calm     80 % 0.00 in
03:39 50.9 °F 45.3 °F 29.90 in West 1.3 mph 2.9 mph 81 % 0.00 in
03:49 50.7 °F 45.4 °F 29.90 in Calm   2.0 mph 82 % 0.00 in
Burke, Virginia, USA
Compliments of Weather Underground - 1.75 mb